createdAt,value
2023-05-08T00:00:59.804Z,15.40
2023-05-08T00:03:28.131Z,15.40
2023-05-08T00:05:56.726Z,15.40
2023-05-08T00:08:25.134Z,15.40
2023-05-08T00:10:54.769Z,15.50
2023-05-08T00:13:23.050Z,15.50
2023-05-08T00:15:51.490Z,15.50
2023-05-08T00:18:19.642Z,15.50
2023-05-08T00:20:47.764Z,15.40
2023-05-08T00:23:15.864Z,15.30
2023-05-08T00:25:43.940Z,15.30
2023-05-08T00:28:13.436Z,15.30
2023-05-08T00:30:42.805Z,15.30
2023-05-08T00:33:11.744Z,15.30
2023-05-08T00:35:41.187Z,15.30
2023-05-08T00:38:09.366Z,15.30
2023-05-08T00:40:37.723Z,15.20
2023-05-08T00:43:07.073Z,15.20
2023-05-08T00:45:40.623Z,15.20
2023-05-08T00:48:09.247Z,15.10
2023-05-08T00:50:37.957Z,15.10
2023-05-08T00:53:06.447Z,15.20
2023-05-08T00:55:34.676Z,15.20
2023-05-08T00:58:03.594Z,15.30
2023-05-08T01:00:33.151Z,15.30
2023-05-08T01:03:03.409Z,15.30
2023-05-08T01:05:31.978Z,15.30
2023-05-08T01:08:00.188Z,15.30
2023-05-08T01:10:34.185Z,15.30
2023-05-08T01:13:10.440Z,15.30
2023-05-08T01:15:45.066Z,15.30
2023-05-08T01:18:18.838Z,15.30
2023-05-08T01:20:53.083Z,15.30
2023-05-08T01:23:57.042Z,15.10
2023-05-08T01:26:57.195Z,15.20
2023-05-08T01:29:46.086Z,15.20
2023-05-08T01:32:20.328Z,15.20
2023-05-08T01:34:59.788Z,15.20
2023-05-08T01:37:36.868Z,15.20
2023-05-08T01:40:18.815Z,15.20
2023-05-08T01:45:48.819Z,15.20
2023-05-08T01:48:32.211Z,15.20
2023-05-08T01:51:10.872Z,15.10
2023-05-08T01:53:50.790Z,15.10
2023-05-08T01:56:27.417Z,15.10
2023-05-08T01:59:03.084Z,15.10
2023-05-08T02:01:39.836Z,15.10
2023-05-08T02:04:18.257Z,15.10
2023-05-08T02:06:49.033Z,15.10
2023-05-08T02:09:21.636Z,15.00
2023-05-08T02:12:00.061Z,15.00
2023-05-08T02:14:35.234Z,15.00
2023-05-08T02:17:04.309Z,14.90
2023-05-08T02:19:38.613Z,14.80
2023-05-08T02:22:12.324Z,14.80
2023-05-08T02:24:46.252Z,14.80
2023-05-08T02:27:21.060Z,14.80
2023-05-08T02:29:52.674Z,14.80
2023-05-08T02:32:46.583Z,14.70
2023-05-08T02:35:25.873Z,14.80
2023-05-08T02:38:02.450Z,14.80
2023-05-08T02:40:38.582Z,14.80
2023-05-08T02:43:09.797Z,14.80
2023-05-08T02:45:46.976Z,14.80
2023-05-08T02:48:21.463Z,14.80
2023-05-08T02:50:59.634Z,14.80
2023-05-08T02:53:39.264Z,14.80
2023-05-08T02:56:13.989Z,14.80
2023-05-08T02:58:47.626Z,14.70
2023-05-08T03:01:22.928Z,14.70
2023-05-08T03:04:09.000Z,14.70
2023-05-08T03:06:48.991Z,14.70
2023-05-08T03:09:29.356Z,14.80
2023-05-08T03:12:05.435Z,14.70
2023-05-08T03:14:49.136Z,14.70
2023-05-08T03:17:22.249Z,14.70
2023-05-08T03:20:03.384Z,14.80
2023-05-08T03:22:36.029Z,14.80
2023-05-08T03:25:12.944Z,14.80
2023-05-08T03:27:42.286Z,14.80
2023-05-08T03:30:12.760Z,14.80
2023-05-08T03:32:45.771Z,14.80
2023-05-08T03:35:40.137Z,14.80
2023-05-08T03:38:23.183Z,14.80
2023-05-08T03:40:54.493Z,14.80
2023-05-08T03:46:28.009Z,14.80
2023-05-08T03:49:00.328Z,14.80
2023-05-08T03:51:33.973Z,14.80
2023-05-08T03:54:19.335Z,14.80
2023-05-08T03:56:53.913Z,14.80
2023-05-08T03:59:44.634Z,14.80
2023-05-08T04:02:24.357Z,14.80
2023-05-08T04:05:13.204Z,14.70
2023-05-08T04:08:02.397Z,14.80
2023-05-08T04:10:51.354Z,14.80
2023-05-08T04:13:27.369Z,14.80
2023-05-08T04:16:17.887Z,14.80
2023-05-08T04:18:50.988Z,14.80
2023-05-08T04:21:27.464Z,14.80
2023-05-08T04:24:01.083Z,14.80
2023-05-08T04:26:39.364Z,14.90
2023-05-08T04:29:13.170Z,14.90
2023-05-08T04:31:42.578Z,14.90
2023-05-08T04:34:14.971Z,14.90
2023-05-08T04:36:45.783Z,14.90
2023-05-08T04:39:32.948Z,14.90
2023-05-08T04:42:30.304Z,15.00
2023-05-08T04:45:02.689Z,14.90
2023-05-08T04:47:31.156Z,14.90
2023-05-08T04:50:02.595Z,14.90
2023-05-08T04:52:31.572Z,14.90
2023-05-08T04:55:12.870Z,14.90
2023-05-08T04:57:50.062Z,14.90
2023-05-08T05:00:19.629Z,15.00
2023-05-08T05:02:53.094Z,14.90
2023-05-08T05:08:16.869Z,14.90
2023-05-08T05:10:50.748Z,14.90
2023-05-08T05:13:48.660Z,14.80
2023-05-08T05:19:15.581Z,14.90
2023-05-08T05:21:46.881Z,14.90
2023-05-08T05:24:16.513Z,14.90
2023-05-08T05:26:48.926Z,15.00
2023-05-08T05:29:35.078Z,14.90
2023-05-08T05:32:07.319Z,15.00
2023-05-08T05:34:38.660Z,15.00
2023-05-08T05:37:09.057Z,14.90
2023-05-08T05:39:44.030Z,14.90
2023-05-08T05:42:22.490Z,15.00
2023-05-08T05:44:56.831Z,14.90
2023-05-08T05:47:35.619Z,14.90
2023-05-08T05:50:04.802Z,15.00
2023-05-08T05:52:34.665Z,15.00
2023-05-08T05:55:05.150Z,15.00
2023-05-08T05:57:37.268Z,15.00
2023-05-08T06:00:11.628Z,15.00
2023-05-08T06:02:55.441Z,14.80
2023-05-08T06:05:24.319Z,14.90
2023-05-08T06:08:08.946Z,14.80
2023-05-08T06:10:40.213Z,14.80
2023-05-08T06:13:15.859Z,14.80
2023-05-08T06:15:46.856Z,14.80
2023-05-08T06:18:25.492Z,14.80
2023-05-08T06:20:58.650Z,14.90
2023-05-08T06:23:27.202Z,15.00
2023-05-08T06:28:49.468Z,15.10
2023-05-08T06:31:29.027Z,15.20
2023-05-08T06:34:01.052Z,15.30
2023-05-08T06:36:29.495Z,15.30
2023-05-08T06:38:59.191Z,15.40
2023-05-08T06:41:29.837Z,15.40
2023-05-08T06:43:58.283Z,15.40
2023-05-08T06:46:30.275Z,15.40
2023-05-08T06:49:01.789Z,15.40
2023-05-08T06:51:31.852Z,15.40
2023-05-08T06:54:10.367Z,15.40
2023-05-08T06:56:46.605Z,15.50
2023-05-08T06:59:17.130Z,15.60
2023-05-08T07:02:13.217Z,15.60
2023-05-08T07:04:47.579Z,15.80
2023-05-08T07:07:28.936Z,15.80
2023-05-08T07:12:43.874Z,15.80
2023-05-08T07:15:25.227Z,15.80
2023-05-08T07:17:58.007Z,15.90
2023-05-08T07:20:26.522Z,15.90
2023-05-08T07:22:59.634Z,16.00
2023-05-08T07:25:30.163Z,16.00
2023-05-08T07:28:04.274Z,16.10
2023-05-08T07:30:34.279Z,16.10
2023-05-08T07:33:11.453Z,16.10
2023-05-08T07:35:47.741Z,16.30
2023-05-08T07:38:16.716Z,16.30
2023-05-08T07:40:49.608Z,16.40
2023-05-08T07:43:21.702Z,16.40
2023-05-08T07:45:51.374Z,16.50
2023-05-08T07:48:23.876Z,16.50
2023-05-08T07:50:57.087Z,16.50
2023-05-08T07:53:32.660Z,16.40
2023-05-08T07:58:59.932Z,16.30
2023-05-08T08:01:32.594Z,16.30
2023-05-08T08:04:19.602Z,16.30
2023-05-08T08:06:50.906Z,16.30
2023-05-08T08:09:35.270Z,16.20
2023-05-08T08:12:03.455Z,16.30
2023-05-08T08:14:31.693Z,16.30
2023-05-08T08:16:59.857Z,16.30
2023-05-08T08:19:29.440Z,16.30
2023-05-08T08:21:57.571Z,16.50
2023-05-08T08:24:25.885Z,16.60
2023-05-08T08:26:54.033Z,16.80
2023-05-08T08:29:22.214Z,17.00
2023-05-08T08:31:50.460Z,17.40
2023-05-08T08:34:18.840Z,17.50
2023-05-08T08:36:48.352Z,17.70
2023-05-08T08:39:16.534Z,18.00
2023-05-08T08:41:45.587Z,18.10
2023-05-08T08:44:13.790Z,18.40
2023-05-08T08:46:51.478Z,18.50
2023-05-08T08:49:25.844Z,18.80
2023-05-08T08:52:00.301Z,18.80
2023-05-08T08:54:31.686Z,18.80
2023-05-08T08:57:03.030Z,19.30
2023-05-08T08:59:32.606Z,19.30
2023-05-08T09:02:07.688Z,19.50
2023-05-08T09:04:35.841Z,19.80
2023-05-08T09:07:05.733Z,20.10
2023-05-08T09:09:35.922Z,20.30
2023-05-08T09:12:04.114Z,20.30
2023-05-08T09:14:32.229Z,20.30
2023-05-08T09:17:00.482Z,20.20
2023-05-08T09:19:29.992Z,20.30
2023-05-08T09:22:01.322Z,20.30
2023-05-08T09:24:58.219Z,20.50
2023-05-08T09:27:28.228Z,20.50
2023-05-08T09:30:04.590Z,20.80
2023-05-08T09:32:34.061Z,21.10
2023-05-08T09:35:02.830Z,20.90
2023-05-08T09:37:31.175Z,21.30
2023-05-08T10:13:35.637Z,21.00
2023-05-08T10:16:04.480Z,20.00
2023-05-08T10:18:36.815Z,20.30
2023-05-08T10:21:08.201Z,20.50
2023-05-08T10:23:37.061Z,20.70
2023-05-08T10:26:11.384Z,20.50
2023-05-08T10:28:46.063Z,20.40
2023-05-08T10:31:18.549Z,20.50
2023-05-08T10:33:47.634Z,20.80
2023-05-08T10:36:16.950Z,20.80
2023-05-08T10:38:45.120Z,21.00
2023-05-08T10:41:15.385Z,20.90
2023-05-08T10:43:44.955Z,20.80
2023-05-08T10:46:23.860Z,21.00
2023-05-08T10:48:59.263Z,21.10
2023-05-08T10:51:39.812Z,21.50
2023-05-08T10:54:13.950Z,21.90
2023-05-08T10:56:42.297Z,21.80
2023-05-08T10:59:19.691Z,21.70
2023-05-08T11:01:50.228Z,21.80
2023-05-08T11:04:22.615Z,21.90
2023-05-08T11:06:53.153Z,22.00
2023-05-08T11:09:23.212Z,22.10
2023-05-08T11:12:05.114Z,22.30
2023-05-08T11:14:36.453Z,22.30
2023-05-08T11:17:08.286Z,22.30
2023-05-08T11:19:37.307Z,22.60
2023-05-08T11:22:30.136Z,22.80
2023-05-08T11:25:00.879Z,23.20
2023-05-08T11:27:40.965Z,23.10
2023-05-08T11:30:27.657Z,23.20
2023-05-08T11:33:00.746Z,23.40
2023-05-08T11:35:42.991Z,22.80
2023-05-08T11:38:22.391Z,23.10
2023-05-08T11:41:06.847Z,23.00
2023-05-08T11:44:09.554Z,23.20
2023-05-08T11:46:43.091Z,23.20
2023-05-08T11:49:16.733Z,23.10
2023-05-08T11:51:46.919Z,23.10
2023-05-08T11:54:17.941Z,23.40
2023-05-08T11:56:48.137Z,23.30
2023-05-08T11:59:16.946Z,22.60
2023-05-08T12:01:56.598Z,22.40
2023-05-08T12:04:32.640Z,22.20
2023-05-08T12:07:00.933Z,22.40
2023-05-08T12:09:29.287Z,22.30
2023-05-08T12:12:00.192Z,22.50
2023-05-08T12:14:28.332Z,22.90
2023-05-08T12:16:57.852Z,23.10
2023-05-08T12:19:26.007Z,23.00
2023-05-08T12:21:57.859Z,23.20
2023-05-08T12:24:26.930Z,23.20
2023-05-08T12:26:56.442Z,22.90
2023-05-08T12:29:27.190Z,22.80
2023-05-08T12:31:55.717Z,23.30
2023-05-08T12:34:25.472Z,23.70
2023-05-08T12:37:03.580Z,23.70
2023-05-08T12:39:37.704Z,23.70
2023-05-08T12:42:06.060Z,23.00
2023-05-08T12:44:34.279Z,23.20
2023-05-08T12:47:02.521Z,23.00
2023-05-08T12:49:33.014Z,23.30
2023-05-08T12:52:06.773Z,23.10
2023-05-08T12:54:36.731Z,22.80
2023-05-08T12:57:11.697Z,22.80
2023-05-08T12:59:40.289Z,22.70
2023-05-08T13:02:19.256Z,22.30
2023-05-08T13:04:56.924Z,22.30
2023-05-08T13:07:32.988Z,22.10
2023-05-08T13:10:07.350Z,21.70
2023-05-08T13:12:47.987Z,21.70
2023-05-08T13:15:18.174Z,21.70
2023-05-08T13:17:54.578Z,21.60
2023-05-08T13:20:25.070Z,21.80
2023-05-08T13:22:53.415Z,21.80
2023-05-08T13:25:21.525Z,21.70
2023-05-08T13:27:49.637Z,21.70
2023-05-08T13:30:18.096Z,21.60
2023-05-08T13:32:46.405Z,21.60
2023-05-08T13:35:14.852Z,21.80
2023-05-08T13:37:44.680Z,21.60
2023-05-08T13:40:13.958Z,21.60
2023-05-08T13:42:42.103Z,22.00
2023-05-08T13:45:13.523Z,22.40
2023-05-08T13:47:42.945Z,22.70
2023-05-08T13:50:12.649Z,23.20
2023-05-08T13:52:41.651Z,23.80
2023-05-08T13:55:13.298Z,24.90
2023-05-08T13:57:42.224Z,25.60
2023-05-08T14:00:11.425Z,25.90
2023-05-08T14:02:54.764Z,26.20
2023-05-08T14:05:26.869Z,26.00
2023-05-08T14:07:56.016Z,25.60
2023-05-08T14:10:47.911Z,25.80
2023-05-08T14:13:33.670Z,25.20
2023-05-08T14:16:06.500Z,24.40
2023-05-08T14:18:42.603Z,24.30
2023-05-08T14:21:16.608Z,23.30
2023-05-08T14:23:55.268Z,22.80
2023-05-08T14:29:33.219Z,22.20
2023-05-08T14:32:01.577Z,21.90
2023-05-08T14:34:29.844Z,21.70
2023-05-08T14:36:57.922Z,21.10
2023-05-08T14:39:26.059Z,21.10
2023-05-08T14:42:18.256Z,21.10
2023-05-08T14:44:43.697Z,21.30
2023-05-08T14:47:11.936Z,21.50
2023-05-08T14:49:40.530Z,21.80
2023-05-08T14:52:08.736Z,22.10
2023-05-08T14:54:36.991Z,22.30
2023-05-08T14:57:06.713Z,22.20
2023-05-08T14:59:34.898Z,22.20
2023-05-08T15:02:03.102Z,22.30
2023-05-08T15:04:31.348Z,22.30
2023-05-08T15:06:59.477Z,22.40
2023-05-08T15:09:27.621Z,22.10
2023-05-08T15:11:55.885Z,21.20
2023-05-08T15:14:27.087Z,20.40
2023-05-08T15:16:55.224Z,19.60
2023-05-08T15:19:23.333Z,19.00
2023-05-08T15:21:51.477Z,18.60
2023-05-08T15:24:19.628Z,18.50
2023-05-08T15:26:47.721Z,18.30
2023-05-08T15:29:15.897Z,18.10
2023-05-08T15:31:45.355Z,18.00
2023-05-08T15:34:13.473Z,18.10
2023-05-08T15:36:41.613Z,18.10
2023-05-08T15:39:09.717Z,18.10
2023-05-08T15:41:39.779Z,18.00
2023-05-08T15:44:08.359Z,18.00
2023-05-08T15:46:36.696Z,18.30
2023-05-08T15:49:06.478Z,18.40
2023-05-08T15:51:34.683Z,18.50
2023-05-08T15:54:02.826Z,18.30
2023-05-08T15:56:30.944Z,18.30
2023-05-08T15:58:59.093Z,18.30
2023-05-08T16:01:27.421Z,18.30
2023-05-08T16:04:06.244Z,18.30
2023-05-08T16:06:34.403Z,18.30
2023-05-08T16:09:02.933Z,18.30
2023-05-08T16:11:31.931Z,18.30
2023-05-08T16:14:00.509Z,18.40
2023-05-08T16:16:28.989Z,18.60
2023-05-08T16:18:57.210Z,18.80
2023-05-08T16:21:27.344Z,18.80
2023-05-08T16:23:55.988Z,18.80
2023-05-08T16:26:24.480Z,18.90
2023-05-08T16:28:52.625Z,18.90
2023-05-08T16:31:20.838Z,18.80
2023-05-08T16:33:48.997Z,18.70
2023-05-08T16:36:17.107Z,18.60
2023-05-08T16:38:46.648Z,18.40
2023-05-08T16:41:14.833Z,18.30
2023-05-08T16:43:42.942Z,18.10
2023-05-08T16:46:11.193Z,18.10
2023-05-08T16:48:39.404Z,18.00
2023-05-08T16:51:08.107Z,18.00
2023-05-08T16:53:36.230Z,18.10
2023-05-08T16:56:05.935Z,18.10
2023-05-08T16:58:34.039Z,18.00
2023-05-08T17:01:02.240Z,17.90
2023-05-08T17:03:30.662Z,17.90
2023-05-08T17:05:58.821Z,17.80
2023-05-08T17:08:27.141Z,17.80
2023-05-08T17:10:55.272Z,17.60
2023-05-08T17:13:24.849Z,17.50
2023-05-08T17:15:53.133Z,17.60
2023-05-08T17:18:21.399Z,17.60
2023-05-08T17:20:49.614Z,17.50
2023-05-08T17:23:17.826Z,17.40
2023-05-08T17:25:46.722Z,17.40
2023-05-08T17:28:14.847Z,17.30
2023-05-08T17:30:46.341Z,17.30
2023-05-08T17:33:14.570Z,17.30
2023-05-08T17:35:42.705Z,17.40
2023-05-08T17:38:10.816Z,17.30
2023-05-08T17:40:40.012Z,17.40
2023-05-08T17:43:08.663Z,17.30
2023-05-08T17:45:36.831Z,17.30
2023-05-08T17:48:06.927Z,17.30
2023-05-08T17:50:35.866Z,17.30
2023-05-08T17:53:04.022Z,17.30
2023-05-08T17:55:32.443Z,17.30
2023-05-08T17:58:00.701Z,17.30
2023-05-08T18:00:28.819Z,17.30
2023-05-08T18:02:57.101Z,17.30
2023-05-08T18:05:27.065Z,17.20
2023-05-08T18:07:55.293Z,17.10
2023-05-08T18:10:23.683Z,16.90
2023-05-08T18:12:51.900Z,16.80
2023-05-08T18:15:20.063Z,16.80
2023-05-08T18:17:49.096Z,16.80
2023-05-08T18:20:17.255Z,16.90
2023-05-08T18:22:47.161Z,16.80
2023-05-08T18:25:15.650Z,16.80
2023-05-08T18:27:46.042Z,16.80
2023-05-08T18:30:14.995Z,16.80
2023-05-08T18:32:43.434Z,16.70
2023-05-08T18:35:13.604Z,16.70
2023-05-08T18:37:41.741Z,16.70
2023-05-08T18:40:13.178Z,16.70
2023-05-08T18:42:41.456Z,16.60
2023-05-08T18:45:11.465Z,16.50
2023-05-08T18:47:42.085Z,16.50
2023-05-08T18:50:11.568Z,16.50
2023-05-08T18:52:40.731Z,16.50
2023-05-08T18:55:09.821Z,16.40
2023-05-08T18:57:39.308Z,16.30
2023-05-08T19:00:08.758Z,16.30
2023-05-08T19:02:36.982Z,16.20
2023-05-08T19:05:05.637Z,16.00
2023-05-08T19:07:33.834Z,16.10
2023-05-08T19:10:01.966Z,16.10
2023-05-08T19:12:30.096Z,16.10
2023-05-08T19:14:59.622Z,16.10
2023-05-08T19:17:27.835Z,16.00
2023-05-08T19:19:55.975Z,16.00
2023-05-08T19:22:24.101Z,15.90
2023-05-08T19:24:52.243Z,16.00
2023-05-08T19:27:20.389Z,15.90
2023-05-08T19:29:48.576Z,15.90
2023-05-08T19:32:18.157Z,15.90
2023-05-08T19:34:46.375Z,15.80
2023-05-08T19:37:14.622Z,15.80
2023-05-08T19:39:42.871Z,15.80
2023-05-08T19:42:13.746Z,15.80
2023-05-08T19:44:42.063Z,15.80
2023-05-08T19:47:10.201Z,15.80
2023-05-08T19:49:39.751Z,15.80
2023-05-08T19:52:07.961Z,15.80
2023-05-08T19:54:36.162Z,15.80
2023-05-08T19:57:04.255Z,15.80
2023-05-08T19:59:32.331Z,15.80
2023-05-08T20:02:02.976Z,15.80
2023-05-08T20:04:48.654Z,15.80
2023-05-08T20:07:37.354Z,15.80
2023-05-08T20:10:10.311Z,15.80
2023-05-08T20:12:52.652Z,15.80
2023-05-08T20:15:23.763Z,15.70
2023-05-08T20:18:00.873Z,15.70
2023-05-08T20:20:35.804Z,15.70
2023-05-08T20:23:19.473Z,15.70
2023-05-08T20:28:36.854Z,15.60
2023-05-08T20:31:05.012Z,15.60
2023-05-08T20:33:33.150Z,15.60
2023-05-08T20:36:01.264Z,15.60
2023-05-08T20:38:31.560Z,15.50
2023-05-08T20:41:01.253Z,15.50
2023-05-08T20:43:29.624Z,15.50
2023-05-08T20:45:57.796Z,15.50
2023-05-08T20:48:25.954Z,15.50
2023-05-08T20:50:54.055Z,15.50
2023-05-08T20:53:22.166Z,15.40
2023-05-08T20:55:51.640Z,15.40
2023-05-08T20:58:19.806Z,15.50
2023-05-08T21:00:47.878Z,15.40
2023-05-08T21:03:16.136Z,15.40
2023-05-08T21:05:44.231Z,15.40
2023-05-08T21:08:12.534Z,15.40
2023-05-08T21:10:41.317Z,15.40
2023-05-08T21:13:10.846Z,15.30
2023-05-08T21:15:39.702Z,15.30
2023-05-08T21:18:08.232Z,15.30
2023-05-08T21:20:36.402Z,15.30
2023-05-08T21:23:04.789Z,15.30
2023-05-08T21:25:33.023Z,15.30
2023-05-08T21:28:01.163Z,15.30
2023-05-08T21:30:30.691Z,15.30
2023-05-08T21:32:58.891Z,15.30
2023-05-08T21:35:27.041Z,15.40
2023-05-08T21:37:55.547Z,15.40
2023-05-08T21:40:24.020Z,15.40
2023-05-08T21:42:52.099Z,15.40
2023-05-08T21:45:20.214Z,15.40
2023-05-08T21:47:49.852Z,15.30
2023-05-08T21:50:18.236Z,15.30
2023-05-08T21:52:46.358Z,15.30
2023-05-08T21:55:14.753Z,15.20
2023-05-08T21:57:43.017Z,15.30
2023-05-08T22:00:12.150Z,15.30
2023-05-08T22:02:40.277Z,15.20
2023-05-08T22:05:10.448Z,15.20
2023-05-08T22:07:38.777Z,15.20
2023-05-08T22:10:09.208Z,15.10
2023-05-08T22:12:37.336Z,15.10
2023-05-08T22:15:14.899Z,15.00
2023-05-08T22:17:50.707Z,15.00
2023-05-08T22:20:20.265Z,14.90
2023-05-08T22:22:48.666Z,14.80
2023-05-08T22:25:16.996Z,14.80
2023-05-08T22:27:45.190Z,14.80
2023-05-08T22:30:13.505Z,14.80
2023-05-08T22:32:42.777Z,14.70
2023-05-08T22:35:11.655Z,14.60
2023-05-08T22:37:41.288Z,14.60
2023-05-08T22:40:10.526Z,14.50
2023-05-08T22:42:38.741Z,14.40
2023-05-08T22:45:07.953Z,14.30
2023-05-08T22:47:36.404Z,14.30
2023-05-08T22:50:08.479Z,14.20
2023-05-08T22:52:36.742Z,14.10
2023-05-08T22:55:07.891Z,14.10
2023-05-08T22:57:36.041Z,14.00
2023-05-08T23:00:06.359Z,14.00
2023-05-08T23:02:35.241Z,13.90
2023-05-08T23:05:03.974Z,13.90
2023-05-08T23:07:32.116Z,13.90
2023-05-08T23:10:00.228Z,13.90
2023-05-08T23:12:29.729Z,13.90
2023-05-08T23:14:57.887Z,13.80
2023-05-08T23:17:26.379Z,13.80
2023-05-08T23:19:54.520Z,13.80
2023-05-08T23:22:22.725Z,13.80
2023-05-08T23:24:50.849Z,13.90
2023-05-08T23:27:18.964Z,14.00
2023-05-08T23:29:48.693Z,14.00
2023-05-08T23:32:16.800Z,14.00
2023-05-08T23:34:44.910Z,13.90
2023-05-08T23:37:13.023Z,13.90
2023-05-08T23:39:42.078Z,13.90
2023-05-08T23:42:10.437Z,13.90
2023-05-08T23:44:38.584Z,13.90
2023-05-08T23:47:08.176Z,14.00
2023-05-08T23:49:36.429Z,13.90
2023-05-08T23:52:04.673Z,14.00
2023-05-08T23:54:32.834Z,13.90
2023-05-08T23:57:00.968Z,14.00
2023-05-08T23:59:29.150Z,14.00
